createdAt,value
2019-01-19T00:00:05.985Z,-0.51
2019-01-19T00:02:56.617Z,-0.57
2019-01-19T00:05:47.189Z,-0.58
2019-01-19T00:08:39.648Z,-0.61
2019-01-19T00:11:32.103Z,-0.58
2019-01-19T00:14:24.586Z,-0.60
2019-01-19T00:17:15.130Z,-0.64
2019-01-19T00:20:05.684Z,-0.66
2019-01-19T00:22:56.229Z,-0.78
2019-01-19T00:25:46.799Z,-0.86
2019-01-19T00:28:37.359Z,-0.91
2019-01-19T00:31:27.896Z,-0.95
2019-01-19T00:34:18.452Z,-0.99
2019-01-19T00:37:11.269Z,-0.98
2019-01-19T00:40:01.802Z,-0.99
2019-01-19T00:42:54.510Z,-1.06
2019-01-19T00:45:45.084Z,-1.07
2019-01-19T00:48:35.634Z,-1.04
2019-01-19T00:51:26.189Z,-0.99
2019-01-19T00:54:17.847Z,-0.95
2019-01-19T00:57:10.366Z,-0.92
2019-01-19T01:00:02.831Z,-0.97
2019-01-19T01:02:53.401Z,-1.05
2019-01-19T01:05:45.856Z,-1.07
2019-01-19T01:08:38.340Z,-1.21
2019-01-19T01:11:28.920Z,-1.39
2019-01-19T01:14:21.400Z,-1.48
2019-01-19T01:17:13.861Z,-1.43
2019-01-19T01:20:04.408Z,-1.44
2019-01-19T01:22:54.977Z,-1.48
2019-01-19T01:25:45.537Z,-1.48
2019-01-19T01:28:38.005Z,-1.51
2019-01-19T01:31:30.462Z,-1.54
2019-01-19T01:34:22.943Z,-1.63
2019-01-19T01:37:15.396Z,-1.71
2019-01-19T01:40:07.860Z,-1.77
2019-01-19T01:42:58.426Z,-1.81
2019-01-19T01:45:49.013Z,-1.84
2019-01-19T01:48:41.496Z,-1.89
2019-01-19T01:51:32.038Z,-1.89
2019-01-19T01:54:22.595Z,-1.83
2019-01-19T01:56:33.421Z,-1.91
2019-01-19T01:59:23.977Z,-1.98
2019-01-19T02:02:16.454Z,-2.02
2019-01-19T02:05:07.002Z,-2.14
2019-01-19T02:07:59.447Z,-2.12
2019-01-19T02:10:50.083Z,-2.00
2019-01-19T02:13:40.640Z,-1.94
2019-01-19T02:16:33.117Z,-2.03
2019-01-19T02:19:25.569Z,-1.96
2019-01-19T02:22:16.309Z,-1.94
2019-01-19T02:25:06.879Z,-1.92
2019-01-19T02:27:57.461Z,-1.92
2019-01-19T02:30:49.927Z,-1.91
2019-01-19T02:33:40.483Z,-1.84
2019-01-19T02:36:31.097Z,-1.85
2019-01-19T02:39:21.634Z,-1.78
2019-01-19T02:42:12.211Z,-1.80
2019-01-19T02:45:04.661Z,-1.82
2019-01-19T02:47:55.234Z,-1.84
2019-01-19T02:50:45.797Z,-1.89
2019-01-19T02:53:36.359Z,-2.07
2019-01-19T02:56:28.793Z,-2.36
2019-01-19T02:59:21.297Z,-2.50
2019-01-19T03:07:43.200Z,-2.30
2019-01-19T03:10:35.654Z,-2.32
2019-01-19T03:13:28.128Z,-2.28
2019-01-19T03:16:18.665Z,-2.38
2019-01-19T03:19:09.230Z,-2.46
2019-01-19T03:21:59.766Z,-2.53
2019-01-19T03:24:52.236Z,-2.57
2019-01-19T03:27:44.716Z,-2.66
2019-01-19T03:30:37.163Z,-2.80
2019-01-19T03:33:27.722Z,-2.80
2019-01-19T03:36:20.170Z,-2.79
2019-01-19T03:39:12.629Z,-2.84
2019-01-19T03:42:03.860Z,-2.88
2019-01-19T03:44:56.319Z,-2.85
2019-01-19T03:47:48.784Z,-2.93
2019-01-19T03:50:39.339Z,-2.96
2019-01-19T03:53:30.103Z,-2.94
2019-01-19T03:56:20.632Z,-2.96
2019-01-19T03:59:11.216Z,-2.96
2019-01-19T04:02:01.775Z,-2.92
2019-01-19T04:04:52.395Z,-2.97
2019-01-19T04:07:42.865Z,-3.01
2019-01-19T04:10:33.452Z,-3.10
2019-01-19T04:13:25.888Z,-3.08
2019-01-19T04:16:16.445Z,-3.08
2019-01-19T04:19:06.994Z,-3.04
2019-01-19T04:21:59.461Z,-3.08
2019-01-19T04:24:51.903Z,-3.05
2019-01-19T04:27:02.717Z,-3.02
2019-01-19T04:29:13.508Z,-3.05
2019-01-19T04:31:24.322Z,-3.02
2019-01-19T04:33:35.134Z,-3.04
2019-01-19T04:35:45.933Z,-3.08
2019-01-19T04:37:56.754Z,-3.13
2019-01-19T04:40:49.213Z,-3.17
2019-01-19T04:43:00.001Z,-3.18
2019-01-19T04:45:10.996Z,-3.17
2019-01-19T04:47:21.810Z,-3.14
2019-01-19T04:49:32.601Z,-3.23
2019-01-19T04:51:43.437Z,-3.30
2019-01-19T04:53:54.231Z,-3.36
2019-01-19T04:56:05.138Z,-3.44
2019-01-19T04:58:15.987Z,-3.48
2019-01-19T05:00:26.788Z,-3.46
2019-01-19T05:02:37.608Z,-3.50
2019-01-19T05:04:48.515Z,-3.63
2019-01-19T05:06:59.324Z,-3.67
2019-01-19T05:09:10.230Z,-3.65
2019-01-19T05:11:21.016Z,-3.66
2019-01-19T05:13:31.837Z,-3.68
2019-01-19T05:15:42.637Z,-3.69
2019-01-19T05:20:32.138Z,-3.64
2019-01-19T05:22:42.941Z,-3.64
2019-01-19T05:24:53.744Z,-3.59
2019-01-19T05:27:24.455Z,-3.53
2019-01-19T05:29:35.243Z,-3.53
2019-01-19T05:31:46.047Z,-3.49
2019-01-19T05:34:16.759Z,-3.46
2019-01-19T05:36:27.554Z,-3.46
2019-01-19T05:38:38.368Z,-3.43
2019-01-19T05:40:49.187Z,-3.47
2019-01-19T05:42:59.977Z,-3.46
2019-01-19T05:45:52.452Z,-3.45
2019-01-19T05:48:03.563Z,-3.50
2019-01-19T05:50:56.049Z,-3.52
2019-01-19T05:53:06.842Z,-3.54
2019-01-19T05:55:17.652Z,-3.64
2019-01-19T05:57:28.481Z,-3.67
2019-01-19T05:59:39.289Z,-3.75
2019-01-19T06:01:50.094Z,-3.75
2019-01-19T06:04:00.885Z,-3.77
2019-01-19T06:08:30.522Z,-3.68
2019-01-19T06:10:41.334Z,-3.67
2019-01-19T06:12:52.129Z,-3.68
2019-01-19T06:15:44.609Z,-3.66
2019-01-19T06:17:55.400Z,-3.72
2019-01-19T06:20:47.849Z,-3.74
2019-01-19T06:22:58.661Z,-3.70
2019-01-19T06:25:31.243Z,-3.68
2019-01-19T06:27:42.182Z,-3.65
2019-01-19T06:29:52.977Z,-3.64
2019-01-19T06:32:03.822Z,-3.65
2019-01-19T06:34:14.601Z,-3.71
2019-01-19T06:36:25.411Z,-3.72
2019-01-19T06:38:36.221Z,-3.74
2019-01-19T06:40:47.038Z,-3.76
2019-01-19T06:42:58.175Z,-3.76
2019-01-19T06:45:50.623Z,-3.72
2019-01-19T06:50:20.437Z,-3.64
2019-01-19T06:52:31.280Z,-3.65
2019-01-19T06:54:42.184Z,-3.65
2019-01-19T06:56:53.048Z,-3.65
2019-01-19T06:59:03.862Z,-3.61
2019-01-19T07:01:14.674Z,-3.58
2019-01-19T07:03:25.496Z,-3.60
2019-01-19T07:05:36.305Z,-3.59
2019-01-19T07:07:47.138Z,-3.61
2019-01-19T07:09:57.972Z,-3.61
2019-01-19T07:12:08.869Z,-3.68
2019-01-19T07:14:19.687Z,-3.72
2019-01-19T07:16:30.485Z,-3.75
2019-01-19T07:18:41.313Z,-3.85
2019-01-19T07:20:52.104Z,-3.86
2019-01-19T07:23:02.936Z,-3.85
2019-01-19T07:25:13.851Z,-3.86
2019-01-19T07:27:24.698Z,-2.92
2019-01-19T07:29:35.486Z,-2.66
2019-01-19T07:31:46.296Z,-2.77
2019-01-19T07:33:57.098Z,-2.95
2019-01-19T07:36:08.090Z,-3.15
2019-01-19T07:38:18.851Z,-3.36
2019-01-19T07:40:29.661Z,-3.43
2019-01-19T07:45:54.580Z,-3.54
2019-01-19T07:50:24.654Z,-3.59
2019-01-19T07:52:35.479Z,-3.63
2019-01-19T07:54:46.316Z,-3.61
2019-01-19T07:56:57.126Z,-3.59
2019-01-19T07:59:08.082Z,-3.53
2019-01-19T08:01:18.884Z,-3.48
2019-01-19T08:03:29.675Z,-3.45
2019-01-19T08:05:40.506Z,-3.39
2019-01-19T08:07:51.302Z,-3.31
2019-01-19T08:10:43.780Z,-3.25
2019-01-19T08:15:47.034Z,-3.08
2019-01-19T08:17:57.857Z,-3.17
2019-01-19T08:20:50.342Z,-3.23
2019-01-19T08:23:01.156Z,-3.21
2019-01-19T08:25:53.614Z,-3.05
2019-01-19T08:28:04.459Z,-2.82
2019-01-19T08:30:35.230Z,-2.34
2019-01-19T08:32:46.191Z,-1.92
2019-01-19T08:34:56.988Z,-1.48
2019-01-19T08:37:07.921Z,-1.25
2019-01-19T08:39:19.024Z,-1.09
2019-01-19T08:41:29.837Z,-1.02
2019-01-19T08:46:13.013Z,-0.58
2019-01-19T08:48:24.133Z,-0.34
2019-01-19T08:50:34.958Z,-0.12
2019-01-19T08:52:45.805Z,0.17
2019-01-19T08:54:56.594Z,0.54
2019-01-19T08:57:07.623Z,0.99
2019-01-19T08:59:18.434Z,1.29
2019-01-19T09:01:29.349Z,1.52
2019-01-19T09:03:40.153Z,1.68
2019-01-19T09:05:50.966Z,1.90
2019-01-19T09:08:01.777Z,2.11
2019-01-19T09:10:32.438Z,2.21
2019-01-19T09:12:43.368Z,2.34
2019-01-19T09:14:54.168Z,2.29
2019-01-19T09:17:05.032Z,1.99
2019-01-19T09:19:15.839Z,1.73
2019-01-19T09:21:26.655Z,1.41
2019-01-19T09:25:56.283Z,1.30
2019-01-19T09:28:07.112Z,1.52
2019-01-19T09:30:59.576Z,1.56
2019-01-19T09:33:10.514Z,1.51
2019-01-19T09:35:21.302Z,1.50
2019-01-19T09:37:32.150Z,1.21
2019-01-19T09:39:42.939Z,0.82
2019-01-19T09:41:53.739Z,0.83
2019-01-19T09:44:04.649Z,0.81
2019-01-19T09:46:15.595Z,1.16
2019-01-19T09:48:33.517Z,1.20
2019-01-19T09:50:44.312Z,1.17
2019-01-19T09:52:55.148Z,1.09
2019-01-19T09:55:27.692Z,0.87
2019-01-19T09:57:38.610Z,0.73
2019-01-19T09:59:49.474Z,0.56
2019-01-19T10:02:00.296Z,0.46
2019-01-19T10:04:11.115Z,0.27
2019-01-19T10:06:22.027Z,0.16
2019-01-19T10:08:32.923Z,0.22
2019-01-19T10:13:06.187Z,0.05
2019-01-19T10:15:58.641Z,-0.07
2019-01-19T10:18:09.554Z,-0.06
2019-01-19T10:20:40.248Z,-0.09
2019-01-19T10:22:51.197Z,-0.02
2019-01-19T10:25:43.842Z,-0.07
2019-01-19T10:27:54.661Z,-0.09
2019-01-19T10:30:47.140Z,-0.07
2019-01-19T10:32:58.032Z,-0.08
2019-01-19T10:35:50.498Z,-0.06
2019-01-19T10:38:01.318Z,-0.08
2019-01-19T10:40:53.772Z,-0.22
2019-01-19T10:43:04.571Z,-0.36
2019-01-19T10:45:35.281Z,-0.39
2019-01-19T10:47:46.077Z,-0.37
2019-01-19T10:49:56.883Z,-0.19
2019-01-19T10:52:07.719Z,-0.26
2019-01-19T10:54:18.540Z,-0.28
2019-01-19T10:56:29.523Z,-0.13
2019-01-19T10:58:40.353Z,-0.08
2019-01-19T11:00:51.178Z,-0.04
2019-01-19T11:03:02.100Z,-0.03
2019-01-19T11:05:54.567Z,0.07
2019-01-19T11:10:37.870Z,0.08
2019-01-19T11:12:48.791Z,0.04
2019-01-19T11:14:59.595Z,0.23
2019-01-19T11:17:10.436Z,0.44
2019-01-19T11:19:21.256Z,0.54
2019-01-19T11:21:32.069Z,0.53
2019-01-19T11:23:42.915Z,0.40
2019-01-19T11:25:53.829Z,0.35
2019-01-19T11:28:04.654Z,0.32
2019-01-19T11:30:57.096Z,0.22
2019-01-19T11:33:07.924Z,0.15
2019-01-19T11:35:19.199Z,0.15
2019-01-19T11:37:29.976Z,0.18
2019-01-19T11:39:40.813Z,0.12
2019-01-19T11:41:51.594Z,0.14
2019-01-19T11:44:02.535Z,0.12
2019-01-19T11:46:13.354Z,0.07
2019-01-19T11:48:24.169Z,-0.03
2019-01-19T11:50:34.976Z,-0.06
2019-01-19T11:53:07.696Z,-0.09
2019-01-19T11:58:32.611Z,-0.09
2019-01-19T12:00:43.450Z,-0.21
2019-01-19T12:02:54.297Z,-0.20
2019-01-19T12:05:05.208Z,-0.26
2019-01-19T12:07:16.009Z,-0.30
2019-01-19T12:09:26.839Z,-0.36
2019-01-19T12:11:37.746Z,-0.28
2019-01-19T12:13:48.621Z,-0.37
2019-01-19T12:15:59.423Z,-0.36
2019-01-19T12:18:10.979Z,-0.33
2019-01-19T12:20:43.042Z,-0.37
2019-01-19T12:22:54.153Z,-0.30
2019-01-19T12:25:46.611Z,-0.31
2019-01-19T12:27:57.538Z,-0.43
2019-01-19T12:30:29.233Z,-0.42
2019-01-19T12:32:40.136Z,-0.30
2019-01-19T12:34:50.970Z,-0.04
2019-01-19T12:37:01.884Z,0.02
2019-01-19T12:39:12.702Z,-0.11
2019-01-19T12:41:23.542Z,-0.27
2019-01-19T12:43:34.329Z,-0.30
2019-01-19T12:46:26.813Z,-0.31
2019-01-19T12:48:37.603Z,-0.38
2019-01-19T12:50:48.466Z,-0.54
2019-01-19T12:52:59.290Z,-0.49
2019-01-19T12:55:31.910Z,-0.45
2019-01-19T12:57:42.739Z,-0.39
2019-01-19T12:59:53.575Z,-0.43
2019-01-19T13:02:04.512Z,-0.46
2019-01-19T13:04:15.346Z,-0.64
2019-01-19T13:06:46.330Z,-0.73
2019-01-19T13:08:57.253Z,-0.73
2019-01-19T13:11:49.767Z,-0.59
2019-01-19T13:14:03.420Z,-0.55
2019-01-19T13:16:55.098Z,-0.55
2019-01-19T13:19:47.543Z,-0.53
2019-01-19T13:22:39.991Z,-0.52
2019-01-19T13:25:30.564Z,-0.51
2019-01-19T13:28:21.189Z,-0.45
2019-01-19T13:31:11.711Z,-0.38
2019-01-19T13:33:44.330Z,-0.50
2019-01-19T13:36:34.924Z,-0.46
2019-01-19T13:39:25.539Z,-0.44
2019-01-19T13:42:16.105Z,-0.42
2019-01-19T13:45:06.670Z,-0.45
2019-01-19T13:47:57.233Z,-0.42
2019-01-19T13:50:47.776Z,-0.44
2019-01-19T13:53:38.364Z,-0.42
2019-01-19T13:56:28.940Z,-0.38
2019-01-19T13:59:19.530Z,-0.50
2019-01-19T14:02:10.089Z,-0.45
2019-01-19T14:05:00.669Z,-0.39
2019-01-19T14:07:51.210Z,-0.39
2019-01-19T14:10:41.762Z,-0.36
2019-01-19T14:13:32.317Z,-0.32
2019-01-19T14:16:22.908Z,-0.50
2019-01-19T14:19:15.390Z,-0.40
2019-01-19T14:22:07.833Z,-0.40
2019-01-19T14:25:00.326Z,-0.44
2019-01-19T14:27:52.756Z,-0.49
2019-01-19T14:30:43.342Z,-0.44
2019-01-19T14:33:35.776Z,-0.57
2019-01-19T14:36:26.464Z,-0.60
2019-01-19T14:39:17.023Z,-0.53
2019-01-19T14:42:09.493Z,-0.44
2019-01-19T14:45:01.961Z,-0.42
2019-01-19T14:47:52.514Z,0.04
2019-01-19T14:50:44.984Z,0.09
2019-01-19T14:53:35.590Z,-0.06
2019-01-19T14:56:26.143Z,-0.20
2019-01-19T14:58:58.733Z,-0.26
2019-01-19T15:01:49.295Z,-0.35
2019-01-19T15:04:39.949Z,-0.43
2019-01-19T15:07:32.418Z,-0.47
2019-01-19T15:10:05.014Z,-0.41
2019-01-19T15:12:57.473Z,-0.44
2019-01-19T15:15:48.036Z,-0.43
2019-01-19T15:18:40.520Z,-0.40
2019-01-19T15:21:32.972Z,-0.31
2019-01-19T15:24:23.573Z,-0.20
2019-01-19T15:27:15.989Z,-0.24
2019-01-19T15:30:08.466Z,-0.31
2019-01-19T15:33:00.987Z,-0.33
2019-01-19T15:35:53.445Z,-0.31
2019-01-19T15:38:44.066Z,-0.30
2019-01-19T15:41:36.515Z,-0.32
2019-01-19T15:44:27.208Z,-0.41
2019-01-19T15:47:17.730Z,-0.42
2019-01-19T15:50:08.315Z,-0.43
2019-01-19T15:53:00.779Z,-0.49
2019-01-19T15:55:51.346Z,-0.48
2019-01-19T15:58:43.823Z,0.48
2019-01-19T16:01:36.314Z,0.79
2019-01-19T16:04:28.799Z,0.50
2019-01-19T16:07:19.460Z,0.44
2019-01-19T16:10:11.942Z,0.17
2019-01-19T16:13:04.385Z,0.01
2019-01-19T16:15:54.976Z,-0.15
2019-01-19T16:18:47.417Z,-0.25
2019-01-19T16:21:37.980Z,-0.31
2019-01-19T16:24:28.526Z,-0.36
2019-01-19T16:27:19.083Z,-0.38
2019-01-19T16:30:11.560Z,-0.53
2019-01-19T16:33:02.271Z,-0.56
2019-01-19T16:35:52.853Z,-0.56
2019-01-19T16:38:43.404Z,-0.62
2019-01-19T16:41:36.288Z,-0.53
2019-01-19T16:44:28.780Z,-0.57
2019-01-19T16:47:19.355Z,-0.55
2019-01-19T16:50:09.916Z,-0.61
2019-01-19T16:53:02.384Z,-0.65
2019-01-19T16:55:54.869Z,-0.72
2019-01-19T16:58:45.466Z,-0.70
2019-01-19T17:01:37.918Z,-0.80
2019-01-19T17:04:30.373Z,-0.84
2019-01-19T17:07:22.833Z,-0.89
2019-01-19T17:10:15.326Z,-0.92
2019-01-19T17:13:07.839Z,-0.93
2019-01-19T17:16:00.297Z,-0.98
2019-01-19T17:18:52.775Z,-0.98
2019-01-19T17:21:43.317Z,-1.07
2019-01-19T17:24:35.977Z,-1.11
2019-01-19T17:27:26.540Z,-1.15
2019-01-19T17:30:17.143Z,-1.20
2019-01-19T17:33:07.705Z,-1.30
2019-01-19T17:36:00.177Z,-1.38
2019-01-19T17:38:50.757Z,-1.47
2019-01-19T17:41:41.312Z,-1.48
2019-01-19T17:44:31.903Z,-1.55
2019-01-19T17:47:24.368Z,-1.55
2019-01-19T17:49:56.978Z,-1.58
2019-01-19T17:52:49.456Z,-1.60
2019-01-19T17:55:40.178Z,-1.66
2019-01-19T17:58:30.759Z,-1.69
2019-01-19T18:01:21.579Z,-1.63
2019-01-19T18:04:14.172Z,-1.68
2019-01-19T18:07:06.633Z,-1.76
2019-01-19T18:09:57.224Z,-1.83
2019-01-19T18:12:47.789Z,-1.83
2019-01-19T18:15:38.371Z,-1.85
2019-01-19T18:18:30.880Z,-1.87
2019-01-19T18:21:21.468Z,-1.87
2019-01-19T18:24:13.951Z,-1.88
2019-01-19T18:27:04.559Z,-1.93
2019-01-19T18:29:55.135Z,-1.94
2019-01-19T18:32:47.625Z,-1.99
2019-01-19T18:35:40.129Z,-2.04
2019-01-19T18:38:30.716Z,-2.05
2019-01-19T18:41:21.281Z,-2.02
2019-01-19T18:44:11.871Z,-2.02
2019-01-19T18:47:02.484Z,-2.02
2019-01-19T18:49:54.984Z,-2.11
2019-01-19T18:52:45.604Z,-2.18
2019-01-19T18:55:38.053Z,-2.18
2019-01-19T18:58:28.659Z,-2.17
2019-01-19T19:00:52.455Z,-2.19
2019-01-19T19:03:44.985Z,-2.19
2019-01-19T19:06:37.429Z,-2.15
2019-01-19T19:09:10.047Z,-2.25
2019-01-19T19:12:00.612Z,-2.33
2019-01-19T19:14:53.131Z,-2.31
2019-01-19T19:17:45.605Z,-2.31
2019-01-19T19:20:38.103Z,-2.36
2019-01-19T19:23:30.569Z,-2.34
2019-01-19T19:26:23.064Z,-2.42
2019-01-19T19:29:15.509Z,-2.43
2019-01-19T19:32:06.087Z,-2.34
2019-01-19T19:34:58.577Z,-2.42
2019-01-19T19:37:49.140Z,-2.44
2019-01-19T19:40:39.692Z,-2.50
2019-01-19T19:43:32.153Z,-2.57
2019-01-19T19:46:22.745Z,-2.68
2019-01-19T19:49:15.221Z,-2.60
2019-01-19T19:52:05.794Z,-2.56
2019-01-19T19:54:16.632Z,-2.61
2019-01-19T19:56:27.280Z,-2.61
2019-01-19T19:58:38.138Z,-2.69
2019-01-19T20:03:11.162Z,-2.77
2019-01-19T20:05:22.095Z,-2.82
2019-01-19T20:07:33.019Z,-2.86
2019-01-19T20:09:43.943Z,-2.87
2019-01-19T20:14:17.186Z,-2.87
2019-01-19T20:16:27.995Z,-2.82
2019-01-19T20:18:38.827Z,-2.79
2019-01-19T20:20:49.837Z,-2.89
2019-01-19T20:23:20.560Z,-3.15
2019-01-19T20:25:31.374Z,-3.15
2019-01-19T20:27:42.197Z,-3.21
2019-01-19T20:29:53.015Z,-3.20
2019-01-19T20:32:03.951Z,-3.15
2019-01-19T20:34:14.771Z,-3.19
2019-01-19T20:36:25.585Z,-3.15
2019-01-19T20:38:36.536Z,-3.16
2019-01-19T20:40:47.378Z,-3.15
2019-01-19T20:42:58.240Z,-3.14
2019-01-19T20:45:28.923Z,-3.09
2019-01-19T20:47:39.838Z,-3.11
2019-01-19T20:49:50.688Z,-3.16
2019-01-19T20:52:01.625Z,-3.21
2019-01-19T20:54:12.467Z,-3.24
2019-01-19T20:56:23.282Z,-3.24
2019-01-19T20:58:34.231Z,-3.18
2019-01-19T21:00:45.064Z,-3.23
2019-01-19T21:02:55.986Z,-3.27
2019-01-19T21:05:06.921Z,-3.30
2019-01-19T21:07:17.741Z,-3.16
2019-01-19T21:09:28.698Z,-2.97
2019-01-19T21:11:39.507Z,-3.00
2019-01-19T21:13:50.323Z,-3.14
2019-01-19T21:16:01.370Z,-3.22
2019-01-19T21:18:12.192Z,-3.17
2019-01-19T21:20:23.030Z,-3.23
2019-01-19T21:22:33.853Z,-3.25
2019-01-19T21:24:44.671Z,-3.24
2019-01-19T21:26:55.479Z,-3.32
2019-01-19T21:29:06.301Z,-3.33
2019-01-19T21:31:17.155Z,-3.39
2019-01-19T21:33:27.987Z,-3.38
2019-01-19T21:35:38.965Z,-3.37
2019-01-19T21:37:49.759Z,-3.33
2019-01-19T21:40:00.616Z,-3.36
2019-01-19T21:42:11.420Z,-3.39
2019-01-19T21:44:22.254Z,-3.35
2019-01-19T21:46:33.189Z,-3.34
2019-01-19T21:48:44.031Z,-3.36
2019-01-19T21:50:54.948Z,-3.38
2019-01-19T21:53:05.777Z,-3.48
2019-01-19T21:55:16.609Z,-3.49
2019-01-19T21:57:27.464Z,-3.49
2019-01-19T21:59:38.308Z,-3.50
2019-01-19T22:01:49.143Z,-3.51
2019-01-19T22:03:59.963Z,-3.50
2019-01-19T22:06:10.841Z,-3.45
2019-01-19T22:08:21.653Z,-3.46
2019-01-19T22:10:32.551Z,-3.51
2019-01-19T22:12:43.399Z,-3.57
2019-01-19T22:14:54.203Z,-3.56
2019-01-19T22:17:05.131Z,-3.54
2019-01-19T22:19:15.935Z,-3.52
2019-01-19T22:21:26.877Z,-3.51
2019-01-19T22:23:37.719Z,-3.57
2019-01-19T22:25:48.519Z,-3.59
2019-01-19T22:27:59.353Z,-3.61
2019-01-19T22:30:51.832Z,-3.66
2019-01-19T22:36:03.400Z,-3.68
2019-01-19T22:38:14.365Z,-3.73
2019-01-19T22:40:25.336Z,-3.73
2019-01-19T22:42:36.162Z,-3.69
2019-01-19T22:44:47.004Z,-3.70
2019-01-19T22:46:57.932Z,-3.72
2019-01-19T22:49:08.848Z,-3.72
2019-01-19T22:51:19.711Z,-3.65
2019-01-19T22:53:30.529Z,-3.68
2019-01-19T22:55:41.358Z,-3.72
2019-01-19T22:57:52.159Z,-3.78
2019-01-19T23:01:02.589Z,-3.77
2019-01-19T23:03:33.532Z,-3.81
2019-01-19T23:05:44.348Z,-3.81
2019-01-19T23:07:55.149Z,-3.79
2019-01-19T23:10:47.631Z,-3.79
2019-01-19T23:12:58.476Z,-3.86
2019-01-19T23:17:31.389Z,-4.14
2019-01-19T23:19:42.202Z,-4.31
2019-01-19T23:22:14.807Z,-4.43
2019-01-19T23:24:25.677Z,-4.45
2019-01-19T23:29:08.929Z,-4.51
2019-01-19T23:31:19.771Z,-4.55
2019-01-19T23:33:30.581Z,-4.57
2019-01-19T23:35:41.404Z,-4.63
2019-01-19T23:37:52.225Z,-4.66
2019-01-19T23:40:44.690Z,-4.75
2019-01-19T23:42:55.480Z,-4.81
2019-01-19T23:45:28.104Z,-4.95
2019-01-19T23:47:39.016Z,-5.09
2019-01-19T23:49:49.871Z,-5.09
2019-01-19T23:52:00.740Z,-5.07
2019-01-19T23:54:11.542Z,-5.03
2019-01-19T23:56:22.382Z,-5.01
2019-01-19T23:58:33.232Z,-4.98
